createdAt,value
2022-12-05T00:01:35.931Z,101032.91
2022-12-05T00:04:05.864Z,101025.13
2022-12-05T00:06:35.468Z,101029.50
2022-12-05T00:09:02.147Z,101030.84
2022-12-05T00:11:33.212Z,101029.84
2022-12-05T00:14:01.020Z,101034.75
2022-12-05T00:16:30.654Z,101032.00
2022-12-05T00:19:01.715Z,101031.16
2022-12-05T00:21:30.337Z,101030.03
2022-12-05T00:23:59.469Z,101036.38
2022-12-05T00:26:26.866Z,101029.72
2022-12-05T00:28:55.770Z,101029.72
2022-12-05T00:31:23.806Z,101034.13
2022-12-05T00:33:51.312Z,101040.19
2022-12-05T00:36:21.441Z,101042.09
2022-12-05T00:38:48.365Z,101039.88
2022-12-05T00:41:18.925Z,101032.38
2022-12-05T00:43:46.683Z,101034.00
2022-12-05T00:46:20.318Z,101033.19
2022-12-05T00:48:47.313Z,101030.97
2022-12-05T00:51:19.815Z,101028.47
2022-12-05T00:53:47.233Z,101034.53
2022-12-05T00:56:17.096Z,101032.59
2022-12-05T00:58:46.194Z,101034.22
2022-12-05T01:01:14.622Z,101029.50
2022-12-05T01:03:41.765Z,101030.31
2022-12-05T01:06:08.490Z,101022.56
2022-12-05T01:08:35.684Z,101024.47
2022-12-05T01:11:03.127Z,101021.53
2022-12-05T01:13:33.464Z,101025.44
2022-12-05T01:16:00.176Z,101014.66
2022-12-05T01:18:27.402Z,101010.56
2022-12-05T01:20:54.235Z,101023.59
2022-12-05T01:23:21.548Z,101021.09
2022-12-05T01:25:49.762Z,101023.38
2022-12-05T01:28:17.023Z,101024.19
2022-12-05T01:30:45.911Z,101020.63
2022-12-05T01:33:12.553Z,101020.63
2022-12-05T01:35:42.405Z,101023.38
2022-12-05T01:38:11.451Z,101017.03
2022-12-05T01:40:40.225Z,101017.53
2022-12-05T01:43:14.454Z,101022.56
2022-12-05T01:45:43.270Z,101013.47
2022-12-05T01:48:19.420Z,101021.75
2022-12-05T01:50:47.808Z,101015.09
2022-12-05T01:53:15.483Z,101023.69
2022-12-05T01:55:42.735Z,101024.81
2022-12-05T01:58:10.238Z,101024.31
2022-12-05T02:00:36.598Z,101023.50
2022-12-05T02:03:08.346Z,101015.81
2022-12-05T02:05:36.867Z,101031.56
2022-12-05T02:08:05.115Z,101030.16
2022-12-05T02:10:36.341Z,101032.59
2022-12-05T02:13:30.083Z,101035.38
2022-12-05T02:16:02.661Z,101030.66
2022-12-05T02:18:34.360Z,101044.16
2022-12-05T02:21:41.180Z,101037.31
2022-12-05T02:24:27.081Z,101036.19
2022-12-05T02:27:07.920Z,101037.81
2022-12-05T02:30:04.538Z,101035.38
2022-12-05T02:32:45.937Z,101038.94
2022-12-05T02:35:18.530Z,101041.72
2022-12-05T02:38:15.495Z,101033.41
2022-12-05T02:41:19.403Z,101038.13
2022-12-05T02:44:02.147Z,101035.03
2022-12-05T02:46:31.088Z,101030.03
2022-12-05T02:49:05.870Z,101035.03
2022-12-05T02:51:38.024Z,101041.41
2022-12-05T02:54:10.161Z,101044.69
2022-12-05T02:56:37.327Z,101036.38
2022-12-05T02:59:04.305Z,101041.59
2022-12-05T03:01:32.665Z,101038.03
2022-12-05T03:04:03.005Z,101043.88
2022-12-05T03:06:37.031Z,101042.22
2022-12-05T03:09:14.592Z,101043.06
2022-12-05T03:11:49.562Z,101045.81
2022-12-05T03:14:22.747Z,101046.91
2022-12-05T03:16:52.176Z,101043.06
2022-12-05T03:19:27.084Z,101041.72
2022-12-05T03:22:08.582Z,101039.75
2022-12-05T03:24:37.619Z,101041.91
2022-12-05T03:27:30.825Z,101027.88
2022-12-05T03:30:05.816Z,101033.63
2022-12-05T03:32:35.595Z,101029.41
2022-12-05T03:35:11.116Z,101032.16
2022-12-05T03:37:50.123Z,101038.84
2022-12-05T03:40:32.273Z,101033.31
2022-12-05T03:43:09.782Z,101030.22
2022-12-05T03:45:47.932Z,101030.22
2022-12-05T03:48:23.866Z,101025.22
2022-12-05T03:50:53.796Z,101034.00
2022-12-05T03:53:28.847Z,101035.16
2022-12-05T03:56:06.375Z,101025.22
2022-12-05T03:58:56.730Z,101033.00
2022-12-05T04:01:28.138Z,101026.34
2022-12-05T04:04:09.515Z,101031.88
2022-12-05T04:06:40.052Z,101031.56
2022-12-05T04:09:23.249Z,101032.16
2022-12-05T04:12:02.263Z,101031.88
2022-12-05T04:14:35.186Z,101037.09
2022-12-05T04:17:06.722Z,101036.78
2022-12-05T04:20:13.759Z,101039.53
2022-12-05T04:22:41.248Z,101041.38
2022-12-05T04:25:30.867Z,101038.63
2022-12-05T04:28:21.909Z,101035.03
2022-12-05T04:31:35.929Z,101042.53
2022-12-05T04:34:08.444Z,101043.81
2022-12-05T04:36:41.984Z,101044.69
2022-12-05T04:39:18.029Z,101047.44
2022-12-05T04:42:08.969Z,101048.25
2022-12-05T04:44:42.632Z,101054.59
2022-12-05T04:47:10.992Z,101046.31
2022-12-05T04:49:40.869Z,101052.97
2022-12-05T04:52:11.911Z,101051.31
2022-12-05T04:54:57.310Z,101044.47
2022-12-05T04:57:33.880Z,101049.69
2022-12-05T05:00:00.746Z,101048.88
2022-12-05T05:02:41.388Z,101045.59
2022-12-05T05:05:14.161Z,101040.34
2022-12-05T05:07:49.808Z,101053.38
2022-12-05T05:10:34.230Z,101045.41
2022-12-05T05:13:00.766Z,101052.56
2022-12-05T05:15:27.073Z,101054.81
2022-12-05T05:17:53.388Z,101047.94
2022-12-05T05:20:27.045Z,101051.84
2022-12-05T05:22:58.092Z,101047.25
2022-12-05T05:25:25.723Z,101055.03
2022-12-05T05:27:54.831Z,101055.31
2022-12-05T05:30:24.410Z,101050.44
2022-12-05T05:32:51.091Z,101055.44
2022-12-05T05:35:17.577Z,101057.97
2022-12-05T05:37:44.178Z,101057.81
2022-12-05T05:40:12.338Z,101057.28
2022-12-05T05:42:44.855Z,101063.44
2022-12-05T05:45:12.991Z,101066.47
2022-12-05T05:47:39.809Z,101062.09
2022-12-05T05:50:06.973Z,101064.34
2022-12-05T05:52:35.572Z,101072.63
2022-12-05T05:55:02.999Z,101071.81
2022-12-05T05:57:30.791Z,101071.81
2022-12-05T05:59:57.410Z,101072.63
2022-12-05T06:02:24.246Z,101085.66
2022-12-05T06:04:51.143Z,101074.59
2022-12-05T06:07:17.585Z,101079.28
2022-12-05T06:09:43.903Z,101082.88
2022-12-05T06:12:10.339Z,101084.50
2022-12-05T06:14:36.647Z,101083.38
2022-12-05T06:17:02.997Z,101085.00
2022-12-05T06:19:31.739Z,101092.16
2022-12-05T06:21:58.301Z,101096.88
2022-12-05T06:24:24.690Z,101101.31
2022-12-05T06:26:51.374Z,101100.47
2022-12-05T06:29:21.608Z,101103.53
2022-12-05T06:31:50.934Z,101102.81
2022-12-05T06:34:17.474Z,101105.38
2022-12-05T06:36:43.890Z,101103.81
2022-12-05T06:39:10.381Z,101106.69
2022-12-05T06:41:37.085Z,101111.19
2022-12-05T06:44:03.608Z,101116.75
2022-12-05T06:46:30.513Z,101116.84
2022-12-05T06:48:57.792Z,101121.03
2022-12-05T06:51:24.775Z,101120.53
2022-12-05T06:53:51.139Z,101115.91
2022-12-05T06:56:19.804Z,101111.28
2022-12-05T06:58:53.835Z,101120.19
2022-12-05T07:01:42.122Z,101120.78
2022-12-05T07:04:25.762Z,101109.81
2022-12-05T07:06:54.207Z,101118.09
2022-12-05T07:09:21.819Z,101118.91
2022-12-05T07:11:51.360Z,101123.63
2022-12-05T07:14:45.406Z,101125.84
2022-12-05T07:17:05.197Z,101128.09
2022-12-05T07:19:32.289Z,101124.53
2022-12-05T07:21:58.824Z,101124.84
2022-12-05T07:24:25.547Z,101130.34
2022-12-05T07:26:52.048Z,101130.34
2022-12-05T07:29:18.684Z,101133.94
2022-12-05T07:31:45.514Z,101133.94
2022-12-05T07:34:12.146Z,101134.75
2022-12-05T07:36:38.749Z,101138.34
2022-12-05T07:39:05.154Z,101126.97
2022-12-05T07:41:33.462Z,101133.63
2022-12-05T07:44:00.442Z,101133.31
2022-12-05T07:46:28.577Z,101121.47
2022-12-05T07:48:55.430Z,101129.75
2022-12-05T07:51:22.483Z,101133.31
2022-12-05T07:53:49.092Z,101135.81
2022-12-05T07:56:17.481Z,101134.66
2022-12-05T07:58:45.674Z,101137.13
2022-12-05T08:01:16.308Z,101139.88
2022-12-05T08:03:44.321Z,101136.00
2022-12-05T08:06:18.196Z,101140.41
2022-12-05T08:08:44.988Z,101154.72
2022-12-05T08:11:17.172Z,101150.03
2022-12-05T08:13:44.069Z,101150.03
2022-12-05T08:16:14.600Z,101154.44
2022-12-05T08:18:41.676Z,101156.91
2022-12-05T08:21:12.111Z,101157.72
2022-12-05T08:23:39.829Z,101158.53
2022-12-05T08:26:13.785Z,101151.38
2022-12-05T08:28:40.835Z,101160.19
2022-12-05T08:31:10.866Z,101155.47
2022-12-05T08:33:38.180Z,101164.56
2022-12-05T08:36:06.912Z,101165.38
2022-12-05T08:38:34.401Z,101166.22
2022-12-05T08:41:02.196Z,101173.69
2022-12-05T08:43:32.472Z,101183.63
2022-12-05T08:45:59.940Z,101180.56
2022-12-05T08:48:29.826Z,101176.66
2022-12-05T08:50:57.269Z,101182.41
2022-12-05T08:53:23.609Z,101178.22
2022-12-05T08:55:50.139Z,101179.88
2022-12-05T08:58:16.574Z,101184.78
2022-12-05T09:00:43.544Z,101187.25
2022-12-05T09:03:11.645Z,101184.19
2022-12-05T09:05:38.511Z,101185.81
2022-12-05T09:08:05.516Z,101183.59
2022-12-05T09:10:32.098Z,101187.47
2022-12-05T09:13:00.104Z,101189.13
2022-12-05T09:15:26.740Z,101186.91
2022-12-05T09:17:53.056Z,101187.41
2022-12-05T09:20:19.939Z,101189.88
2022-12-05T09:22:46.454Z,101190.41
2022-12-05T09:25:12.813Z,101195.03
2022-12-05T09:27:39.160Z,101197.47
2022-12-05T09:30:06.289Z,101197.19
2022-12-05T09:32:32.795Z,101200.97
2022-12-05T09:34:59.586Z,101203.44
2022-12-05T09:37:41.159Z,101205.59
2022-12-05T09:40:15.182Z,101211.13
2022-12-05T09:43:01.517Z,101206.13
2022-12-05T09:45:35.644Z,101211.66
2022-12-05T09:48:12.083Z,101209.69
2022-12-05T09:50:44.472Z,101202.22
2022-12-05T09:53:23.074Z,101207.25
2022-12-05T09:55:53.335Z,101207.25
2022-12-05T09:58:22.342Z,101201.72
2022-12-05T10:00:54.267Z,101199.56
2022-12-05T10:03:45.665Z,101195.75
2022-12-05T10:06:29.060Z,101203.22
2022-12-05T10:09:15.451Z,101201.59
2022-12-05T10:12:19.704Z,101208.25
2022-12-05T10:15:01.411Z,101205.47
2022-12-05T10:17:37.079Z,101190.84
2022-12-05T10:20:13.384Z,101197.19
2022-12-05T10:23:18.795Z,101194.72
2022-12-05T10:25:59.644Z,101199.13
2022-12-05T10:28:34.970Z,101203.00
2022-12-05T10:31:07.873Z,101194.72
2022-12-05T10:33:43.485Z,101200.78
2022-12-05T10:36:12.187Z,101199.13
2022-12-05T10:38:39.590Z,101200.78
2022-12-05T10:41:10.736Z,101194.44
2022-12-05T10:43:41.217Z,101195.53
2022-12-05T10:46:09.791Z,101204.03
2022-12-05T10:48:41.500Z,101195.75
2022-12-05T10:51:13.953Z,101198.50
2022-12-05T10:53:49.638Z,101194.63
2022-12-05T10:56:40.903Z,101194.63
2022-12-05T10:59:09.326Z,101196.47
2022-12-05T11:01:40.590Z,101195.66
2022-12-05T11:04:26.182Z,101195.16
2022-12-05T11:06:56.637Z,101195.38
2022-12-05T11:09:26.033Z,101189.00
2022-12-05T11:12:15.956Z,101182.97
2022-12-05T11:14:58.099Z,101185.41
2022-12-05T11:17:30.842Z,101174.38
2022-12-05T11:19:57.265Z,101180.44
2022-12-05T11:22:37.041Z,101173.03
2022-12-05T11:25:30.039Z,101182.47
2022-12-05T11:28:21.351Z,101184.09
2022-12-05T11:30:58.609Z,101183.28
2022-12-05T11:33:27.599Z,101182.97
2022-12-05T11:36:04.283Z,101185.50
2022-12-05T11:38:32.853Z,101175.59
2022-12-05T11:41:47.848Z,101184.78
2022-12-05T11:44:33.421Z,101183.16
2022-12-05T11:47:25.324Z,101176.28
2022-12-05T11:50:04.460Z,101177.63
2022-12-05T11:52:57.888Z,101176.91
2022-12-05T11:55:34.008Z,101174.63
2022-12-05T11:58:29.029Z,101167.78
2022-12-05T12:01:18.664Z,101176.91
2022-12-05T12:03:58.194Z,101177.19
2022-12-05T12:06:33.539Z,101173.59
2022-12-05T12:09:23.405Z,101174.22
2022-12-05T12:12:03.330Z,101171.69
2022-12-05T12:14:55.474Z,101178.06
2022-12-05T12:17:47.056Z,101175.31
2022-12-05T12:20:41.688Z,101172.56
2022-12-05T12:23:29.834Z,101167.56
2022-12-05T12:26:16.078Z,101173.91
2022-12-05T12:28:46.330Z,101174.41
2022-12-05T12:31:12.885Z,101176.06
2022-12-05T12:33:57.473Z,101173.59
2022-12-05T12:36:42.281Z,101178.31
2022-12-05T12:39:24.221Z,101179.13
2022-12-05T12:42:09.339Z,101168.38
2022-12-05T12:44:54.658Z,101169.72
2022-12-05T12:47:40.103Z,101167.56
2022-12-05T12:50:21.324Z,101170.31
2022-12-05T12:53:03.939Z,101168.69
2022-12-05T12:55:54.151Z,101160.16
2022-12-05T12:58:42.198Z,101166.81
2022-12-05T13:01:22.733Z,101163.22
2022-12-05T13:04:02.401Z,101169.03
2022-12-05T13:06:56.810Z,101160.22
2022-12-05T13:09:32.445Z,101164.63
2022-12-05T13:12:07.784Z,101163.81
2022-12-05T13:14:37.396Z,101161.88
2022-12-05T13:17:06.413Z,101161.88
2022-12-05T13:19:44.139Z,101162.19
2022-12-05T13:22:12.939Z,101164.84
2022-12-05T13:24:39.894Z,101162.09
2022-12-05T13:27:09.348Z,101164.84
2022-12-05T13:29:42.846Z,101159.34
2022-12-05T13:32:34.353Z,101164.31
2022-12-05T13:35:07.118Z,101156.56
2022-12-05T13:37:53.469Z,101166.19
2022-12-05T13:40:45.892Z,101171.44
2022-12-05T13:43:15.436Z,101165.38
2022-12-05T13:45:53.680Z,101169.25
2022-12-05T13:48:26.254Z,101167.63
2022-12-05T13:51:13.835Z,101167.09
2022-12-05T13:53:47.403Z,101166.81
2022-12-05T13:56:13.719Z,101166.50
2022-12-05T13:58:47.946Z,101172.59
2022-12-05T14:01:26.890Z,101167.09
2022-12-05T14:03:56.218Z,101175.09
2022-12-05T14:06:34.801Z,101174.28
2022-12-05T14:09:02.492Z,101163.50
2022-12-05T14:11:29.015Z,101169.03
2022-12-05T14:13:59.145Z,101166.88
2022-12-05T14:16:30.371Z,101164.72
2022-12-05T14:19:16.644Z,101173.09
2022-12-05T14:21:53.918Z,101170.31
2022-12-05T14:24:35.935Z,101171.72
2022-12-05T14:27:35.839Z,101172.56
2022-12-05T14:30:06.169Z,101175.03
2022-12-05T14:32:36.516Z,101167.56
2022-12-05T14:35:17.259Z,101176.16
2022-12-05T14:37:53.081Z,101173.09
2022-12-05T14:40:36.498Z,101173.91
2022-12-05T14:43:15.437Z,101175.53
2022-12-05T14:45:57.071Z,101179.44
2022-12-05T14:48:40.108Z,101186.59
2022-12-05T14:51:30.775Z,101187.22
2022-12-05T14:54:02.871Z,101178.59
2022-12-05T14:56:29.786Z,101189.06
2022-12-05T14:59:09.669Z,101188.84
2022-12-05T15:01:49.778Z,101194.94
2022-12-05T15:04:35.089Z,101194.75
2022-12-05T15:07:09.616Z,101202.19
2022-12-05T15:09:37.611Z,101197.50
2022-12-05T15:12:11.165Z,101196.66
2022-12-05T15:14:45.962Z,101198.59
2022-12-05T15:17:18.430Z,101195.84
2022-12-05T15:19:51.734Z,101194.75
2022-12-05T15:22:21.424Z,101203.31
2022-12-05T15:24:47.937Z,101204.13
2022-12-05T15:27:15.528Z,101203.03
2022-12-05T15:29:42.350Z,101204.13
2022-12-05T15:32:11.742Z,101206.91
2022-12-05T15:34:45.406Z,101207.22
2022-12-05T15:37:59.817Z,101211.09
2022-12-05T15:40:26.427Z,101212.13
2022-12-05T15:42:57.522Z,101212.72
2022-12-05T15:45:27.090Z,101216.31
2022-12-05T15:48:11.206Z,101221.84
2022-12-05T15:50:51.298Z,101224.91
2022-12-05T15:53:43.927Z,101223.53
2022-12-05T15:56:40.818Z,101229.88
2022-12-05T15:59:35.138Z,101221.31
2022-12-05T16:02:26.579Z,101226.31
2022-12-05T16:04:56.650Z,101237.88
2022-12-05T16:07:28.702Z,101234.31
2022-12-05T16:10:00.719Z,101239.00
2022-12-05T16:12:38.344Z,101237.34
2022-12-05T16:15:13.815Z,101235.94
2022-12-05T16:17:47.186Z,101238.41
2022-12-05T16:20:16.520Z,101239.22
2022-12-05T16:22:53.967Z,101238.72
2022-12-05T16:25:29.735Z,101240.66
2022-12-05T16:28:16.866Z,101240.66
2022-12-05T16:30:58.210Z,101242.59
2022-12-05T16:33:26.297Z,101244.50
2022-12-05T16:35:53.224Z,101241.53
2022-12-05T16:38:21.357Z,101239.38
2022-12-05T16:40:52.915Z,101244.66
2022-12-05T16:43:22.790Z,101244.97
2022-12-05T16:45:50.685Z,101240.88
2022-12-05T16:48:22.119Z,101238.69
2022-12-05T16:50:50.916Z,101237.88
2022-12-05T16:53:29.811Z,101236.00
2022-12-05T16:55:58.926Z,101230.78
2022-12-05T16:58:27.553Z,101230.25
2022-12-05T17:01:06.657Z,101226.97
2022-12-05T17:03:35.474Z,101231.38
2022-12-05T17:06:03.029Z,101234.13
2022-12-05T17:08:29.615Z,101229.44
2022-12-05T17:10:59.032Z,101226.38
2022-12-05T17:13:25.459Z,101222.50
2022-12-05T17:15:52.354Z,101225.78
2022-12-05T17:18:21.866Z,101226.59
2022-12-05T17:20:54.263Z,101228.22
2022-12-05T17:23:20.868Z,101227.97
2022-12-05T17:25:58.560Z,101226.09
2022-12-05T17:28:25.890Z,101225.78
2022-12-05T17:30:52.935Z,101226.09
2022-12-05T17:33:19.684Z,101228.84
2022-12-05T17:35:46.849Z,101231.38
2022-12-05T17:38:13.323Z,101236.91
2022-12-05T17:40:40.400Z,101228.63
2022-12-05T17:43:08.134Z,101231.06
2022-12-05T17:45:34.442Z,101239.06
2022-12-05T17:48:00.992Z,101234.38
2022-12-05T17:50:29.779Z,101235.69
2022-12-05T17:53:01.620Z,101244.81
2022-12-05T17:55:32.204Z,101242.28
2022-12-05T17:57:58.697Z,101250.56
2022-12-05T18:00:25.324Z,101247.22
2022-12-05T18:02:52.785Z,101243.84
2022-12-05T18:05:19.521Z,101238.84
2022-12-05T18:07:46.367Z,101249.28
2022-12-05T18:10:16.368Z,101250.09
2022-12-05T18:12:42.811Z,101249.00
2022-12-05T18:15:12.108Z,101251.22
2022-12-05T18:17:39.002Z,101256.75
2022-12-05T18:20:08.478Z,101252.66
2022-12-05T18:22:35.354Z,101254.88
2022-12-05T18:25:03.401Z,101256.00
2022-12-05T18:27:32.674Z,101249.66
2022-12-05T18:30:00.039Z,101256.00
2022-12-05T18:32:26.496Z,101254.38
2022-12-05T18:34:53.178Z,101261.84
2022-12-05T18:37:19.760Z,101256.31
2022-12-05T18:39:46.443Z,101256.00
2022-12-05T18:42:15.243Z,101248.22
2022-12-05T18:44:43.613Z,101252.34
2022-12-05T18:47:10.082Z,101256.47
2022-12-05T18:49:36.597Z,101254.53
2022-12-05T18:52:03.239Z,101259.75
2022-12-05T18:54:30.675Z,101262.19
2022-12-05T18:56:58.761Z,101268.25
2022-12-05T18:59:28.524Z,101270.41
2022-12-05T19:01:55.657Z,101270.97
2022-12-05T19:04:22.350Z,101274.53
2022-12-05T19:06:50.407Z,101274.53
2022-12-05T19:09:18.586Z,101281.69
2022-12-05T19:11:47.973Z,101281.38
2022-12-05T19:14:16.696Z,101282.22
2022-12-05T19:16:43.298Z,101285.81
2022-12-05T19:19:14.325Z,101284.16
2022-12-05T19:21:42.890Z,101289.41
2022-12-05T19:24:12.116Z,101284.16
2022-12-05T19:26:38.904Z,101289.69
2022-12-05T19:29:05.962Z,101286.09
2022-12-05T19:31:33.411Z,101290.81
2022-12-05T19:34:02.042Z,101286.91
2022-12-05T19:36:29.407Z,101291.34
2022-12-05T19:38:56.640Z,101289.59
2022-12-05T19:41:30.256Z,101287.16
2022-12-05T19:44:00.234Z,101290.72
2022-12-05T19:46:29.747Z,101290.22
2022-12-05T19:48:57.972Z,101284.69
2022-12-05T19:51:26.986Z,101295.75
2022-12-05T19:53:53.765Z,101292.16
2022-12-05T19:56:25.669Z,101284.97
2022-12-05T19:58:55.466Z,101282.22
2022-12-05T20:01:30.485Z,101296.88
2022-12-05T20:04:00.288Z,101287.44
2022-12-05T20:06:34.713Z,101298.78
2022-12-05T20:09:01.705Z,101295.19
2022-12-05T20:11:31.837Z,101297.13
2022-12-05T20:14:01.926Z,101298.25
2022-12-05T20:16:29.216Z,101287.22
2022-12-05T20:19:00.524Z,101297.44
2022-12-05T20:21:29.933Z,101293.88
2022-12-05T20:23:58.081Z,101288.34
2022-12-05T20:26:28.744Z,101293.06
2022-12-05T20:28:58.900Z,101290.28
2022-12-05T20:31:30.232Z,101291.09
2022-12-05T20:33:56.938Z,101291.94
2022-12-05T20:36:26.910Z,101291.09
2022-12-05T20:38:58.521Z,101293.88
2022-12-05T20:41:25.146Z,101290.81
2022-12-05T20:43:58.160Z,101293.31
2022-12-05T20:46:25.222Z,101285.03
2022-12-05T20:48:53.622Z,101284.22
2022-12-05T20:51:28.206Z,101273.78
2022-12-05T20:53:55.136Z,101290.06
2022-12-05T20:56:25.275Z,101279.59
2022-12-05T20:58:54.422Z,101283.16
2022-12-05T21:01:22.534Z,101276.81
2022-12-05T21:03:50.838Z,101276.56
2022-12-05T21:06:26.119Z,101279.31
2022-12-05T21:08:54.427Z,101277.38
2022-12-05T21:11:22.257Z,101276.56
2022-12-05T21:13:48.970Z,101273.78
2022-12-05T21:16:18.253Z,101279.31
2022-12-05T21:18:45.987Z,101276.25
2022-12-05T21:21:15.159Z,101276.25
2022-12-05T21:23:43.112Z,101283.41
2022-12-05T21:26:13.219Z,101276.75
2022-12-05T21:28:42.168Z,101274.00
2022-12-05T21:31:12.518Z,101270.13
2022-12-05T21:33:40.506Z,101269.00
2022-12-05T21:36:07.972Z,101269.53
2022-12-05T21:38:34.830Z,101269.53
2022-12-05T21:41:04.397Z,101272.00
2022-12-05T21:43:31.204Z,101271.16
2022-12-05T21:45:57.984Z,101269.25
2022-12-05T21:48:25.450Z,101261.78
2022-12-05T21:50:52.327Z,101262.28
2022-12-05T21:53:20.132Z,101255.13
2022-12-05T21:55:47.083Z,101266.69
2022-12-05T21:58:14.018Z,101263.66
2022-12-05T22:00:40.616Z,101259.75
2022-12-05T22:03:07.668Z,101258.63
2022-12-05T22:05:34.468Z,101262.75
2022-12-05T22:08:05.984Z,101265.50
2022-12-05T22:10:34.461Z,101261.91
2022-12-05T22:13:00.829Z,101263.56
2022-12-05T22:15:27.520Z,101264.66
2022-12-05T22:17:54.153Z,101263.03
2022-12-05T22:20:20.484Z,101263.34
2022-12-05T22:22:46.834Z,101261.69
2022-12-05T22:25:13.171Z,101258.13
2022-12-05T22:27:39.681Z,101261.97
2022-12-05T22:30:07.005Z,101271.94
2022-12-05T22:32:34.922Z,101266.41
2022-12-05T22:35:04.266Z,101267.72
2022-12-05T22:37:31.180Z,101270.81
2022-12-05T22:39:58.059Z,101268.03
2022-12-05T22:42:26.142Z,101269.38
2022-12-05T22:44:52.475Z,101268.56
2022-12-05T22:47:18.934Z,101255.28
2022-12-05T22:49:46.789Z,101259.69
2022-12-05T22:52:15.317Z,101261.63
2022-12-05T22:54:41.934Z,101264.91
2022-12-05T22:57:08.408Z,101263.50
2022-12-05T22:59:35.006Z,101260.72
2022-12-05T23:02:01.708Z,101253.56
2022-12-05T23:04:28.430Z,101255.22
2022-12-05T23:06:54.937Z,101255.47
2022-12-05T23:09:21.396Z,101249.97
2022-12-05T23:11:51.516Z,101255.47
2022-12-05T23:14:18.160Z,101246.09
2022-12-05T23:16:44.567Z,101240.25
2022-12-05T23:19:11.218Z,101252.13
2022-12-05T23:21:39.539Z,101249.06
2022-12-05T23:24:10.170Z,101246.59
2022-12-05T23:26:40.343Z,101243.53
2022-12-05T23:29:07.311Z,101242.47
2022-12-05T23:31:34.094Z,101244.91
2022-12-05T23:34:03.449Z,101239.41
2022-12-05T23:36:32.418Z,101240.22
2022-12-05T23:38:58.816Z,101236.88
2022-12-05T23:41:26.229Z,101234.91
2022-12-05T23:43:53.010Z,101236.56
2022-12-05T23:46:22.768Z,101245.66
2022-12-05T23:48:49.758Z,101239.81
2022-12-05T23:51:22.114Z,101238.19
2022-12-05T23:53:53.042Z,101244.03
2022-12-05T23:56:22.644Z,101248.41
2022-12-05T23:58:49.149Z,101245.34
